createdAt,value
2023-01-13T00:01:13.923Z,3.08
2023-01-13T00:04:20.619Z,2.87
2023-01-13T00:07:26.487Z,2.99
2023-01-13T00:10:36.258Z,3.02
2023-01-13T00:13:42.137Z,2.87
2023-01-13T00:16:49.114Z,2.66
2023-01-13T00:19:55.223Z,2.55
2023-01-13T00:23:02.227Z,2.75
2023-01-13T00:26:14.926Z,2.53
2023-01-13T00:29:21.642Z,2.64
2023-01-13T00:32:27.549Z,2.74
2023-01-13T00:35:34.147Z,2.79
2023-01-13T00:38:43.259Z,3.03
2023-01-13T00:42:04.964Z,2.61
2023-01-13T00:45:11.667Z,2.75
2023-01-13T00:48:18.295Z,2.61
2023-01-13T00:51:25.331Z,2.70
2023-01-13T00:54:31.837Z,3.31
2023-01-13T00:57:40.637Z,3.25
2023-01-13T01:00:47.260Z,3.66
2023-01-13T01:03:55.687Z,3.16
2023-01-13T01:07:02.316Z,2.77
2023-01-13T01:10:09.639Z,2.70
2023-01-13T01:13:18.871Z,2.77
2023-01-13T01:16:28.606Z,2.75
2023-01-13T01:19:37.552Z,2.69
2023-01-13T01:22:43.349Z,2.54
2023-01-13T01:25:49.986Z,2.37
2023-01-13T01:28:59.609Z,2.44
2023-01-13T01:32:06.266Z,2.55
2023-01-13T01:35:12.804Z,2.58
2023-01-13T01:38:21.458Z,2.69
2023-01-13T01:41:31.843Z,2.53
2023-01-13T01:44:59.855Z,2.74
2023-01-13T01:48:10.245Z,2.85
2023-01-13T01:51:17.720Z,3.04
2023-01-13T01:54:31.689Z,2.86
2023-01-13T01:57:49.142Z,2.83
2023-01-13T02:00:57.814Z,3.00
2023-01-13T02:04:15.735Z,3.00
2023-01-13T02:07:26.461Z,3.00
2023-01-13T02:10:35.603Z,3.23
2023-01-13T02:13:41.690Z,3.55
2023-01-13T02:17:14.040Z,3.58
2023-01-13T02:20:56.870Z,3.61
2023-01-13T02:25:01.704Z,4.00
2023-01-13T02:29:10.079Z,4.24
2023-01-13T02:32:30.808Z,4.45
2023-01-13T02:35:51.099Z,4.25
2023-01-13T02:39:10.777Z,4.49
2023-01-13T02:42:42.629Z,4.74
2023-01-13T02:46:00.580Z,4.23
2023-01-13T02:49:30.620Z,4.25
2023-01-13T02:52:43.939Z,4.41
2023-01-13T02:55:56.796Z,4.68
2023-01-13T02:59:07.450Z,4.77
2023-01-13T03:02:22.993Z,4.76
2023-01-13T03:05:37.509Z,4.97
2023-01-13T03:08:57.390Z,5.48
2023-01-13T03:12:19.068Z,5.68
2023-01-13T03:15:40.866Z,5.06
2023-01-13T03:19:10.253Z,5.61
2023-01-13T03:22:32.761Z,5.95
2023-01-13T03:25:48.885Z,5.83
2023-01-13T03:29:08.176Z,5.33
2023-01-13T03:32:26.017Z,5.28
2023-01-13T03:35:41.121Z,5.17
2023-01-13T03:38:59.461Z,5.90
2023-01-13T03:42:15.978Z,6.01
2023-01-13T03:45:21.851Z,6.26
2023-01-13T03:48:34.363Z,6.25
2023-01-13T03:51:50.742Z,6.15
2023-01-13T03:55:10.740Z,6.17
2023-01-13T03:58:26.364Z,5.66
2023-01-13T04:01:45.425Z,5.36
2023-01-13T04:04:59.636Z,5.11
2023-01-13T04:08:21.094Z,5.05
2023-01-13T04:11:41.873Z,5.07
2023-01-13T04:14:49.725Z,4.86
2023-01-13T04:17:56.378Z,4.90
2023-01-13T04:21:05.094Z,5.14
2023-01-13T04:24:12.557Z,5.46
2023-01-13T04:27:21.833Z,5.74
2023-01-13T04:30:27.640Z,6.52
2023-01-13T04:33:34.166Z,8.21
2023-01-13T04:36:40.286Z,7.24
2023-01-13T04:39:46.899Z,6.72
2023-01-13T04:42:58.515Z,7.22
2023-01-13T04:46:05.166Z,7.00
2023-01-13T04:49:10.918Z,7.78
2023-01-13T04:52:17.599Z,8.11
2023-01-13T04:55:26.068Z,8.10
2023-01-13T04:58:35.388Z,7.57
2023-01-13T05:01:42.387Z,7.82
2023-01-13T05:04:49.735Z,7.69
2023-01-13T05:07:55.759Z,7.94
2023-01-13T05:11:23.687Z,7.99
2023-01-13T05:14:44.401Z,8.47
2023-01-13T05:17:52.648Z,10.16
2023-01-13T05:20:58.427Z,10.96
2023-01-13T05:24:17.534Z,12.85
2023-01-13T05:27:23.323Z,18.46
2023-01-13T05:30:42.478Z,15.14
2023-01-13T05:33:48.601Z,10.78
2023-01-13T05:36:55.240Z,9.69
2023-01-13T05:40:28.188Z,9.40
2023-01-13T05:43:35.146Z,8.90
2023-01-13T05:46:44.383Z,8.58
2023-01-13T05:49:51.074Z,7.93
2023-01-13T05:52:56.910Z,7.40
2023-01-13T05:56:06.602Z,7.88
2023-01-13T05:59:12.398Z,7.80
2023-01-13T06:02:21.633Z,7.49
2023-01-13T06:05:28.185Z,7.75
2023-01-13T06:08:39.528Z,8.58
2023-01-13T06:11:46.581Z,7.99
2023-01-13T06:14:53.456Z,7.88
2023-01-13T06:18:04.630Z,7.98
2023-01-13T06:21:11.348Z,9.02
2023-01-13T06:24:17.282Z,11.97
2023-01-13T06:27:25.969Z,13.15
2023-01-13T06:30:38.733Z,8.71
2023-01-13T06:33:58.538Z,7.46
2023-01-13T06:37:07.609Z,7.96
2023-01-13T06:40:17.767Z,7.44
2023-01-13T06:43:21.271Z,7.74
2023-01-13T06:46:29.192Z,9.11
2023-01-13T06:49:37.711Z,7.88
2023-01-13T06:52:44.265Z,8.52
2023-01-13T06:55:50.170Z,7.17
2023-01-13T06:58:56.819Z,7.83
2023-01-13T07:02:02.906Z,8.03
2023-01-13T07:05:12.764Z,8.97
2023-01-13T07:08:18.590Z,13.60
2023-01-13T07:11:25.270Z,13.46
2023-01-13T07:14:43.443Z,22.02
2023-01-13T07:17:50.464Z,17.31
2023-01-13T07:21:04.607Z,15.48
2023-01-13T07:24:14.785Z,19.86
2023-01-13T07:27:23.502Z,17.41
2023-01-13T07:30:30.420Z,21.51
2023-01-13T07:33:36.324Z,16.57
2023-01-13T07:36:45.526Z,17.65
2023-01-13T07:39:51.394Z,18.47
2023-01-13T07:43:10.925Z,17.21
2023-01-13T07:46:17.043Z,16.00
2023-01-13T07:49:23.682Z,14.63
2023-01-13T07:52:33.161Z,13.23
2023-01-13T07:55:45.830Z,13.17
2023-01-13T07:58:53.441Z,15.18
2023-01-13T08:02:00.209Z,15.05
2023-01-13T08:05:06.443Z,14.35
2023-01-13T08:08:15.868Z,13.49
2023-01-13T08:11:23.551Z,12.22
2023-01-13T08:14:30.419Z,11.90
2023-01-13T08:17:36.299Z,13.85
2023-01-13T08:20:43.309Z,14.43
2023-01-13T08:23:51.602Z,13.70
2023-01-13T08:26:58.243Z,13.26
2023-01-13T08:30:04.164Z,15.64
2023-01-13T08:33:13.756Z,14.91
2023-01-13T08:36:19.578Z,16.27
2023-01-13T08:39:29.641Z,14.63
2023-01-13T08:42:35.827Z,12.58
2023-01-13T08:45:42.796Z,13.14
2023-01-13T08:48:48.726Z,12.53
2023-01-13T08:51:56.640Z,14.27
2023-01-13T08:55:04.964Z,13.94
2023-01-13T08:58:15.769Z,13.52
2023-01-13T09:01:26.385Z,13.36
2023-01-13T09:04:34.634Z,12.44
2023-01-13T09:07:42.142Z,13.91
2023-01-13T09:10:51.470Z,13.58
2023-01-13T09:13:54.688Z,11.90
2023-01-13T09:17:02.096Z,11.99
2023-01-13T09:20:09.469Z,14.82
2023-01-13T09:23:16.188Z,14.30
2023-01-13T09:26:25.230Z,13.31
2023-01-13T09:29:32.157Z,12.17
2023-01-13T09:32:38.413Z,12.57
2023-01-13T09:35:42.450Z,11.88
2023-01-13T09:38:48.350Z,12.66
2023-01-13T09:42:18.019Z,12.66
2023-01-13T09:45:32.055Z,12.81
2023-01-13T09:48:52.325Z,14.01
2023-01-13T09:52:10.870Z,18.07
2023-01-13T09:55:22.946Z,15.75
2023-01-13T09:58:31.586Z,14.52
2023-01-13T10:01:54.767Z,14.29
2023-01-13T10:05:17.269Z,13.06
2023-01-13T10:08:31.025Z,11.48
2023-01-13T10:11:58.792Z,11.91
2023-01-13T10:15:21.106Z,10.96
2023-01-13T10:18:45.999Z,10.14
2023-01-13T10:22:25.096Z,9.98
2023-01-13T10:25:55.540Z,10.11
2023-01-13T10:29:02.438Z,9.73
2023-01-13T10:32:11.203Z,9.76
2023-01-13T10:35:17.988Z,10.36
2023-01-13T10:38:28.371Z,9.20
2023-01-13T10:41:36.400Z,9.73
2023-01-13T10:44:53.517Z,9.46
2023-01-13T10:48:17.654Z,8.44
2023-01-13T10:51:28.652Z,8.41
2023-01-13T10:54:54.599Z,9.22
2023-01-13T10:58:00.894Z,8.76
2023-01-13T11:01:10.036Z,10.04
2023-01-13T11:04:34.638Z,8.80
2023-01-13T11:07:50.534Z,8.40
2023-01-13T11:11:04.191Z,8.49
2023-01-13T11:14:37.376Z,8.33
2023-01-13T11:18:06.818Z,9.05
2023-01-13T11:21:41.230Z,10.05
2023-01-13T11:25:02.648Z,11.35
2023-01-13T11:28:38.744Z,10.50
2023-01-13T11:32:14.756Z,11.31
2023-01-13T11:35:30.627Z,12.72
2023-01-13T11:39:01.011Z,11.70
2023-01-13T11:42:30.020Z,10.80
2023-01-13T11:45:49.207Z,10.15
2023-01-13T11:49:09.319Z,10.25
2023-01-13T11:52:54.526Z,10.04
2023-01-13T11:56:30.077Z,11.08
2023-01-13T12:00:30.872Z,12.40
2023-01-13T12:03:54.304Z,12.79
2023-01-13T12:07:24.066Z,12.36
2023-01-13T12:10:57.485Z,15.17
2023-01-13T12:14:30.998Z,15.07
2023-01-13T12:18:04.905Z,12.23
2023-01-13T12:21:32.304Z,11.75
2023-01-13T12:24:59.229Z,11.80
2023-01-13T12:28:16.159Z,12.80
2023-01-13T12:31:53.158Z,13.04
2023-01-13T12:35:36.613Z,14.84
2023-01-13T12:39:01.162Z,13.78
2023-01-13T12:42:34.540Z,11.50
2023-01-13T12:45:50.712Z,12.55
2023-01-13T12:49:23.072Z,13.03
2023-01-13T12:52:49.871Z,13.18
2023-01-13T12:56:18.100Z,15.66
2023-01-13T12:59:53.099Z,15.03
2023-01-13T13:03:37.544Z,15.07
2023-01-13T13:07:11.388Z,14.33
2023-01-13T13:10:35.426Z,11.43
2023-01-13T13:13:53.156Z,11.48
2023-01-13T13:17:50.638Z,12.59
2023-01-13T13:21:13.421Z,14.82
2023-01-13T13:24:33.133Z,13.04
2023-01-13T13:28:20.936Z,12.06
2023-01-13T13:32:36.452Z,13.50
2023-01-13T13:36:14.313Z,16.10
2023-01-13T13:39:44.735Z,25.61
2023-01-13T13:43:14.291Z,23.96
2023-01-13T13:46:50.197Z,16.39
2023-01-13T13:50:01.380Z,22.39
2023-01-13T13:53:12.330Z,27.12
2023-01-13T13:56:38.790Z,22.99
2023-01-13T14:00:01.437Z,18.41
2023-01-13T14:03:35.012Z,15.16
2023-01-13T14:06:53.379Z,13.28
2023-01-13T14:10:20.004Z,14.46
2023-01-13T14:13:34.595Z,14.18
2023-01-13T14:16:56.410Z,14.30
2023-01-13T14:20:09.953Z,14.14
2023-01-13T14:23:33.955Z,13.11
2023-01-13T14:26:46.675Z,13.72
2023-01-13T14:30:04.620Z,13.81
2023-01-13T14:33:26.338Z,13.83
2023-01-13T14:36:42.321Z,14.63
2023-01-13T14:39:51.730Z,16.43
2023-01-13T14:43:16.276Z,16.06
2023-01-13T14:46:41.000Z,15.92
2023-01-13T14:50:19.170Z,15.65
2023-01-13T14:53:44.051Z,16.70
2023-01-13T14:57:16.288Z,15.22
2023-01-13T15:00:31.214Z,33.90
2023-01-13T15:03:51.382Z,349.72
2023-01-13T15:07:06.080Z,264.92
2023-01-13T15:10:27.049Z,241.97
2023-01-13T15:13:52.848Z,269.12
2023-01-13T15:17:17.201Z,52.25
2023-01-13T15:20:37.201Z,93.07
2023-01-13T15:23:47.951Z,159.95
2023-01-13T15:26:57.075Z,60.72
2023-01-13T15:30:10.235Z,18.77
2023-01-13T15:33:22.689Z,24.17
2023-01-13T15:36:38.516Z,200.30
2023-01-13T15:39:47.557Z,855.35
2023-01-13T15:43:09.427Z,1329.51
2023-01-13T15:46:41.853Z,448.39
2023-01-13T15:49:52.591Z,12.10
2023-01-13T15:53:10.631Z,23.39
2023-01-13T15:56:30.247Z,292.11
2023-01-13T15:59:47.428Z,15.13
2023-01-13T16:03:00.344Z,9.06
2023-01-13T16:06:33.403Z,10.02
2023-01-13T16:09:46.430Z,8.36
2023-01-13T16:13:02.331Z,10.83
2023-01-13T16:16:25.563Z,14.38
2023-01-13T16:19:35.207Z,9.23
2023-01-13T16:22:46.303Z,8.24
2023-01-13T16:25:56.370Z,26.94
2023-01-13T16:29:04.925Z,31.31
2023-01-13T16:32:12.425Z,15.46
2023-01-13T16:35:22.010Z,11.26
2023-01-13T16:38:29.274Z,9.02
2023-01-13T16:41:46.020Z,9.39
2023-01-13T16:45:02.079Z,9.31
2023-01-13T16:48:24.008Z,7.95
2023-01-13T16:51:32.224Z,14.14
2023-01-13T16:54:41.323Z,9.32
2023-01-13T16:57:52.465Z,9.01
2023-01-13T17:01:05.523Z,10.25
2023-01-13T17:04:27.334Z,11.30
2023-01-13T17:07:36.805Z,9.51
2023-01-13T17:10:52.015Z,9.02
2023-01-13T17:14:18.231Z,10.19
2023-01-13T17:17:36.809Z,10.38
2023-01-13T17:20:51.959Z,10.76
2023-01-13T17:24:06.339Z,10.70
2023-01-13T17:27:18.841Z,12.75
2023-01-13T17:30:35.425Z,11.95
2023-01-13T17:33:47.470Z,11.38
2023-01-13T17:37:01.938Z,12.70
2023-01-13T17:40:19.499Z,89.83
2023-01-13T17:43:32.284Z,555.64
2023-01-13T17:46:51.825Z,582.70
2023-01-13T17:50:07.267Z,301.90
2023-01-13T17:53:24.654Z,58.81
2023-01-13T17:56:38.139Z,22.47
2023-01-13T17:59:48.424Z,15.67
2023-01-13T18:03:03.739Z,12.46
2023-01-13T18:06:26.073Z,14.42
2023-01-13T18:09:38.342Z,16.82
2023-01-13T18:12:48.156Z,17.01
2023-01-13T18:16:02.657Z,22.80
2023-01-13T18:19:26.265Z,22.29
2023-01-13T18:22:53.309Z,16.31
2023-01-13T18:26:12.175Z,15.02
2023-01-13T18:29:18.610Z,17.49
2023-01-13T18:32:32.929Z,15.45
2023-01-13T18:35:44.045Z,17.05
2023-01-13T18:38:53.361Z,17.94
2023-01-13T18:42:11.475Z,19.26
2023-01-13T18:45:18.300Z,21.49
2023-01-13T18:48:23.986Z,24.70
2023-01-13T18:51:33.314Z,26.42
2023-01-13T18:54:39.498Z,26.64
2023-01-13T18:57:46.209Z,24.68
2023-01-13T19:00:53.395Z,25.26
2023-01-13T19:04:02.664Z,22.89
2023-01-13T19:07:12.725Z,21.98
2023-01-13T19:10:20.930Z,24.48
2023-01-13T19:13:26.746Z,23.81
2023-01-13T19:16:34.970Z,22.51
2023-01-13T19:19:45.405Z,20.74
2023-01-13T19:22:55.470Z,20.50
2023-01-13T19:26:04.389Z,19.75
2023-01-13T19:29:13.848Z,18.43
2023-01-13T19:32:20.999Z,16.95
2023-01-13T19:35:28.973Z,18.31
2023-01-13T19:38:40.767Z,16.95
2023-01-13T19:41:59.780Z,16.17
2023-01-13T19:45:18.090Z,15.84
2023-01-13T19:48:24.817Z,15.61
2023-01-13T19:51:30.846Z,15.24
2023-01-13T19:54:40.284Z,15.36
2023-01-13T19:57:46.237Z,14.86
2023-01-13T20:00:54.362Z,14.90
2023-01-13T20:04:03.387Z,15.28
2023-01-13T20:07:11.382Z,15.83
2023-01-13T20:10:26.175Z,17.54
2023-01-13T20:13:36.061Z,17.52
2023-01-13T20:16:41.935Z,18.81
2023-01-13T20:19:48.913Z,17.57
2023-01-13T20:22:55.066Z,19.91
2023-01-13T20:26:06.838Z,22.66
2023-01-13T20:29:13.837Z,27.50
2023-01-13T20:32:20.715Z,28.19
2023-01-13T20:35:29.829Z,20.46
2023-01-13T20:38:39.917Z,18.81
2023-01-13T20:42:01.825Z,25.09
2023-01-13T20:45:12.741Z,18.98
2023-01-13T20:48:18.731Z,18.67
2023-01-13T20:51:26.417Z,18.50
2023-01-13T20:54:32.362Z,18.52
2023-01-13T20:57:48.599Z,17.79
2023-01-13T21:00:54.643Z,17.54
2023-01-13T21:04:03.006Z,17.39
2023-01-13T21:07:11.916Z,18.83
2023-01-13T21:10:19.177Z,17.67
2023-01-13T21:13:40.148Z,17.58
2023-01-13T21:16:46.884Z,17.98
2023-01-13T21:19:50.707Z,17.65
2023-01-13T21:22:58.781Z,17.50
2023-01-13T21:26:05.109Z,17.94
2023-01-13T21:29:14.384Z,18.23
2023-01-13T21:32:20.183Z,18.23
2023-01-13T21:35:26.960Z,19.12
2023-01-13T21:38:32.775Z,18.10
2023-01-13T21:41:51.780Z,17.90
2023-01-13T21:45:14.551Z,18.97
2023-01-13T21:48:21.211Z,17.84
2023-01-13T21:51:27.019Z,17.33
2023-01-13T21:54:33.881Z,17.64
2023-01-13T21:57:40.877Z,18.03
2023-01-13T22:00:50.229Z,18.27
2023-01-13T22:04:08.330Z,18.51
2023-01-13T22:07:16.257Z,19.01
2023-01-13T22:10:25.510Z,18.81
2023-01-13T22:13:44.370Z,18.39
2023-01-13T22:16:53.765Z,17.96
2023-01-13T22:20:01.579Z,17.41
2023-01-13T22:23:07.341Z,17.63
2023-01-13T22:26:15.209Z,17.16
2023-01-13T22:29:21.196Z,17.07
2023-01-13T22:32:30.468Z,17.32
2023-01-13T22:35:36.223Z,17.12
2023-01-13T22:38:43.770Z,16.72
2023-01-13T22:41:50.663Z,16.29
2023-01-13T22:44:57.492Z,16.63
2023-01-13T22:48:05.817Z,16.01
2023-01-13T22:51:15.817Z,15.34
2023-01-13T22:54:22.415Z,15.23
2023-01-13T22:57:35.607Z,15.76
2023-01-13T23:00:42.076Z,15.45
2023-01-13T23:03:54.122Z,15.75
2023-01-13T23:07:00.264Z,16.16
2023-01-13T23:10:10.226Z,16.44
2023-01-13T23:13:15.972Z,16.39
2023-01-13T23:16:24.275Z,16.92
2023-01-13T23:19:32.706Z,15.56
2023-01-13T23:22:40.922Z,15.44
2023-01-13T23:25:53.672Z,15.12
2023-01-13T23:29:06.901Z,15.34
2023-01-13T23:32:12.793Z,14.62
2023-01-13T23:35:22.167Z,14.01
2023-01-13T23:38:29.543Z,14.24
2023-01-13T23:41:36.192Z,14.06
2023-01-13T23:44:42.066Z,13.52
2023-01-13T23:47:48.648Z,14.07
2023-01-13T23:51:07.823Z,13.92
2023-01-13T23:54:14.571Z,14.28
2023-01-13T23:57:20.408Z,13.97
